sensor_id;sensor_type;location;lat;lon;timestamp;P1;durP1;ratioP1;P2;durP2;ratioP2
24751;SDS011;27246;52.376;4.628;2023-03-12T00:03:55;10.88;;;5.95;;
24751;SDS011;27246;52.376;4.628;2023-03-12T00:08:58;8.80;;;5.82;;
24751;SDS011;27246;52.376;4.628;2023-03-12T00:14:02;11.70;;;6.00;;
24751;SDS011;27246;52.376;4.628;2023-03-12T00:19:04;10.63;;;6.03;;
24751;SDS011;27246;52.376;4.628;2023-03-12T00:24:06;9.30;;;5.65;;
24751;SDS011;27246;52.376;4.628;2023-03-12T00:29:08;9.23;;;5.65;;
24751;SDS011;27246;52.376;4.628;2023-03-12T00:34:10;10.35;;;4.90;;
24751;SDS011;27246;52.376;4.628;2023-03-12T00:39:12;11.50;;;7.18;;
24751;SDS011;27246;52.376;4.628;2023-03-12T00:44:13;6.30;;;4.30;;
24751;SDS011;27246;52.376;4.628;2023-03-12T00:49:15;9.55;;;4.60;;
24751;SDS011;27246;52.376;4.628;2023-03-12T00:54:17;6.30;;;4.13;;
24751;SDS011;27246;52.376;4.628;2023-03-12T00:59:19;8.88;;;3.95;;
24751;SDS011;27246;52.376;4.628;2023-03-12T01:04:21;8.02;;;4.50;;
24751;SDS011;27246;52.376;4.628;2023-03-12T01:09:23;7.25;;;4.95;;
24751;SDS011;27246;52.376;4.628;2023-03-12T01:14:25;8.68;;;4.35;;
24751;SDS011;27246;52.376;4.628;2023-03-12T01:19:27;4.43;;;3.70;;
24751;SDS011;27246;52.376;4.628;2023-03-12T01:24:28;8.68;;;4.20;;
24751;SDS011;27246;52.376;4.628;2023-03-12T01:29:30;7.03;;;4.82;;
24751;SDS011;27246;52.376;4.628;2023-03-12T01:34:32;5.90;;;4.13;;
24751;SDS011;27246;52.376;4.628;2023-03-12T01:39:35;6.55;;;4.60;;
24751;SDS011;27246;52.376;4.628;2023-03-12T01:44:57;5.60;;;4.22;;
24751;SDS011;27246;52.376;4.628;2023-03-12T01:50:05;6.07;;;4.43;;
24751;SDS011;27246;52.376;4.628;2023-03-12T01:55:12;8.65;;;5.28;;
24751;SDS011;27246;52.376;4.628;2023-03-12T02:00:20;7.65;;;5.30;;
24751;SDS011;27246;52.376;4.628;2023-03-12T02:05:26;8.93;;;4.93;;
24751;SDS011;27246;52.376;4.628;2023-03-12T02:10:33;6.00;;;4.35;;
24751;SDS011;27246;52.376;4.628;2023-03-12T02:15:34;6.97;;;5.05;;
24751;SDS011;27246;52.376;4.628;2023-03-12T02:25:57;7.80;;;4.30;;
24751;SDS011;27246;52.376;4.628;2023-03-12T02:31:01;8.10;;;4.00;;
24751;SDS011;27246;52.376;4.628;2023-03-12T02:36:05;5.88;;;3.83;;
24751;SDS011;27246;52.376;4.628;2023-03-12T02:46:17;5.15;;;4.07;;
24751;SDS011;27246;52.376;4.628;2023-03-12T02:51:18;5.35;;;4.07;;
24751;SDS011;27246;52.376;4.628;2023-03-12T02:56:23;6.53;;;4.75;;
24751;SDS011;27246;52.376;4.628;2023-03-12T03:01:27;6.18;;;4.22;;
24751;SDS011;27246;52.376;4.628;2023-03-12T03:06:29;6.22;;;4.30;;
24751;SDS011;27246;52.376;4.628;2023-03-12T03:11:31;6.43;;;3.75;;
24751;SDS011;27246;52.376;4.628;2023-03-12T03:16:36;7.40;;;3.92;;
24751;SDS011;27246;52.376;4.628;2023-03-12T03:21:38;8.40;;;3.97;;
24751;SDS011;27246;52.376;4.628;2023-03-12T03:26:40;9.15;;;3.80;;
24751;SDS011;27246;52.376;4.628;2023-03-12T03:31:42;6.85;;;4.10;;
24751;SDS011;27246;52.376;4.628;2023-03-12T03:36:44;8.25;;;4.10;;
24751;SDS011;27246;52.376;4.628;2023-03-12T03:41:48;6.90;;;4.55;;
24751;SDS011;27246;52.376;4.628;2023-03-12T03:46:55;8.50;;;3.70;;
24751;SDS011;27246;52.376;4.628;2023-03-12T03:51:57;9.20;;;3.75;;
24751;SDS011;27246;52.376;4.628;2023-03-12T03:57:05;7.43;;;4.00;;
24751;SDS011;27246;52.376;4.628;2023-03-12T04:02:07;6.60;;;4.03;;
24751;SDS011;27246;52.376;4.628;2023-03-12T04:07:12;6.43;;;3.28;;
24751;SDS011;27246;52.376;4.628;2023-03-12T04:12:14;6.40;;;3.40;;
24751;SDS011;27246;52.376;4.628;2023-03-12T04:17:16;3.95;;;3.15;;
24751;SDS011;27246;52.376;4.628;2023-03-12T04:22:18;5.75;;;3.33;;
24751;SDS011;27246;52.376;4.628;2023-03-12T04:27:20;9.68;;;3.92;;
24751;SDS011;27246;52.376;4.628;2023-03-12T04:32:22;5.32;;;3.70;;
24751;SDS011;27246;52.376;4.628;2023-03-12T04:37:26;5.93;;;3.17;;
24751;SDS011;27246;52.376;4.628;2023-03-12T04:42:28;5.03;;;3.25;;
24751;SDS011;27246;52.376;4.628;2023-03-12T04:47:30;5.60;;;3.22;;
24751;SDS011;27246;52.376;4.628;2023-03-12T04:52:33;6.03;;;2.95;;
24751;SDS011;27246;52.376;4.628;2023-03-12T04:57:35;5.80;;;3.45;;
24751;SDS011;27246;52.376;4.628;2023-03-12T05:02:38;4.88;;;3.28;;
24751;SDS011;27246;52.376;4.628;2023-03-12T05:07:40;5.85;;;3.13;;
24751;SDS011;27246;52.376;4.628;2023-03-12T05:12:42;7.53;;;3.50;;
24751;SDS011;27246;52.376;4.628;2023-03-12T05:17:44;5.90;;;3.42;;
24751;SDS011;27246;52.376;4.628;2023-03-12T05:22:46;6.80;;;4.07;;
24751;SDS011;27246;52.376;4.628;2023-03-12T05:27:48;8.07;;;4.22;;
24751;SDS011;27246;52.376;4.628;2023-03-12T05:32:50;8.27;;;3.85;;
24751;SDS011;27246;52.376;4.628;2023-03-12T05:37:52;6.93;;;3.95;;
24751;SDS011;27246;52.376;4.628;2023-03-12T05:42:54;7.35;;;4.10;;
24751;SDS011;27246;52.376;4.628;2023-03-12T05:47:59;9.27;;;4.13;;
24751;SDS011;27246;52.376;4.628;2023-03-12T05:53:02;6.38;;;4.47;;
24751;SDS011;27246;52.376;4.628;2023-03-12T05:58:04;6.95;;;4.50;;
24751;SDS011;27246;52.376;4.628;2023-03-12T06:03:08;8.02;;;4.72;;
24751;SDS011;27246;52.376;4.628;2023-03-12T06:08:10;8.43;;;4.95;;
24751;SDS011;27246;52.376;4.628;2023-03-12T06:13:12;7.90;;;5.30;;
24751;SDS011;27246;52.376;4.628;2023-03-12T06:18:14;8.43;;;4.68;;
24751;SDS011;27246;52.376;4.628;2023-03-12T06:23:16;8.05;;;5.68;;
24751;SDS011;27246;52.376;4.628;2023-03-12T06:28:21;8.98;;;5.72;;
24751;SDS011;27246;52.376;4.628;2023-03-12T06:33:23;9.50;;;5.93;;
24751;SDS011;27246;52.376;4.628;2023-03-12T06:38:25;6.85;;;6.15;;
24751;SDS011;27246;52.376;4.628;2023-03-12T06:43:27;7.18;;;5.97;;
24751;SDS011;27246;52.376;4.628;2023-03-12T06:48:31;8.27;;;7.22;;
24751;SDS011;27246;52.376;4.628;2023-03-12T06:53:36;9.02;;;7.35;;
24751;SDS011;27246;52.376;4.628;2023-03-12T06:58:42;7.75;;;7.00;;
24751;SDS011;27246;52.376;4.628;2023-03-12T07:03:44;9.05;;;7.63;;
24751;SDS011;27246;52.376;4.628;2023-03-12T07:08:46;8.63;;;7.03;;
24751;SDS011;27246;52.376;4.628;2023-03-12T07:13:47;8.43;;;7.70;;
24751;SDS011;27246;52.376;4.628;2023-03-12T07:18:49;10.30;;;7.32;;
24751;SDS011;27246;52.376;4.628;2023-03-12T07:23:51;8.57;;;7.68;;
24751;SDS011;27246;52.376;4.628;2023-03-12T07:28:53;8.85;;;7.43;;
24751;SDS011;27246;52.376;4.628;2023-03-12T07:33:55;11.60;;;8.68;;
24751;SDS011;27246;52.376;4.628;2023-03-12T07:38:56;11.48;;;9.88;;
24751;SDS011;27246;52.376;4.628;2023-03-12T07:43:58;15.13;;;11.02;;
24751;SDS011;27246;52.376;4.628;2023-03-12T07:49:00;13.30;;;11.77;;
24751;SDS011;27246;52.376;4.628;2023-03-12T07:54:02;11.68;;;10.48;;
24751;SDS011;27246;52.376;4.628;2023-03-12T07:59:04;12.52;;;11.27;;
24751;SDS011;27246;52.376;4.628;2023-03-12T08:04:05;11.95;;;10.75;;
24751;SDS011;27246;52.376;4.628;2023-03-12T08:09:08;13.23;;;11.48;;
24751;SDS011;27246;52.376;4.628;2023-03-12T08:14:10;13.57;;;12.18;;
24751;SDS011;27246;52.376;4.628;2023-03-12T08:19:12;13.57;;;12.20;;
24751;SDS011;27246;52.376;4.628;2023-03-12T08:24:13;15.75;;;13.90;;
24751;SDS011;27246;52.376;4.628;2023-03-12T08:29:15;16.58;;;14.82;;
24751;SDS011;27246;52.376;4.628;2023-03-12T08:34:17;16.10;;;14.40;;
24751;SDS011;27246;52.376;4.628;2023-03-12T08:39:19;17.73;;;16.00;;
24751;SDS011;27246;52.376;4.628;2023-03-12T08:44:21;17.02;;;15.35;;
24751;SDS011;27246;52.376;4.628;2023-03-12T08:49:23;18.42;;;15.40;;
24751;SDS011;27246;52.376;4.628;2023-03-12T08:54:25;21.40;;;15.45;;
24751;SDS011;27246;52.376;4.628;2023-03-12T08:59:27;18.70;;;12.00;;
24751;SDS011;27246;52.376;4.628;2023-03-12T09:04:29;17.05;;;9.32;;
24751;SDS011;27246;52.376;4.628;2023-03-12T09:09:31;18.67;;;8.90;;
24751;SDS011;27246;52.376;4.628;2023-03-12T09:14:32;17.00;;;7.80;;
24751;SDS011;27246;52.376;4.628;2023-03-12T09:19:54;15.45;;;5.97;;
24751;SDS011;27246;52.376;4.628;2023-03-12T09:24:56;21.85;;;6.82;;
24751;SDS011;27246;52.376;4.628;2023-03-12T09:29:58;19.67;;;5.47;;
24751;SDS011;27246;52.376;4.628;2023-03-12T09:35:01;19.02;;;6.25;;
24751;SDS011;27246;52.376;4.628;2023-03-12T09:40:04;19.88;;;5.05;;
24751;SDS011;27246;52.376;4.628;2023-03-12T09:45:19;25.45;;;5.80;;
24751;SDS011;27246;52.376;4.628;2023-03-12T09:50:27;16.70;;;5.22;;
24751;SDS011;27246;52.376;4.628;2023-03-12T09:55:40;22.00;;;5.35;;
24751;SDS011;27246;52.376;4.628;2023-03-12T10:00:45;24.73;;;5.78;;
24751;SDS011;27246;52.376;4.628;2023-03-12T10:22:06;20.25;;;4.57;;
24751;SDS011;27246;52.376;4.628;2023-03-12T10:27:15;20.67;;;6.18;;
24751;SDS011;27246;52.376;4.628;2023-03-12T10:32:24;22.95;;;5.13;;
24751;SDS011;27246;52.376;4.628;2023-03-12T10:42:40;20.92;;;5.57;;
24751;SDS011;27246;52.376;4.628;2023-03-12T10:47:42;27.98;;;6.32;;
24751;SDS011;27246;52.376;4.628;2023-03-12T10:52:47;25.63;;;5.65;;
24751;SDS011;27246;52.376;4.628;2023-03-12T10:57:50;26.92;;;6.55;;
24751;SDS011;27246;52.376;4.628;2023-03-12T11:03:03;25.90;;;6.40;;
24751;SDS011;27246;52.376;4.628;2023-03-12T11:08:12;22.15;;;5.60;;
24751;SDS011;27246;52.376;4.628;2023-03-12T11:23:43;26.85;;;6.03;;
24751;SDS011;27246;52.376;4.628;2023-03-12T11:28:49;26.58;;;6.20;;
24751;SDS011;27246;52.376;4.628;2023-03-12T11:33:59;30.55;;;6.35;;
24751;SDS011;27246;52.376;4.628;2023-03-12T11:39:09;28.45;;;6.22;;
24751;SDS011;27246;52.376;4.628;2023-03-12T11:44:31;27.10;;;7.07;;
24751;SDS011;27246;52.376;4.628;2023-03-12T11:49:46;26.75;;;6.78;;
24751;SDS011;27246;52.376;4.628;2023-03-12T12:05:31;29.42;;;6.45;;
24751;SDS011;27246;52.376;4.628;2023-03-12T12:27:07;32.05;;;7.13;;
24751;SDS011;27246;52.376;4.628;2023-03-12T12:32:22;32.67;;;7.00;;
24751;SDS011;27246;52.376;4.628;2023-03-12T12:37:47;36.58;;;9.20;;
24751;SDS011;27246;52.376;4.628;2023-03-12T12:43:15;35.85;;;7.97;;
24751;SDS011;27246;52.376;4.628;2023-03-12T12:48:26;28.70;;;7.47;;
24751;SDS011;27246;52.376;4.628;2023-03-12T12:53:36;32.53;;;8.50;;
24751;SDS011;27246;52.376;4.628;2023-03-12T13:03:48;34.53;;;8.18;;
24751;SDS011;27246;52.376;4.628;2023-03-12T13:08:58;32.80;;;7.55;;
24751;SDS011;27246;52.376;4.628;2023-03-12T13:34:44;31.70;;;7.20;;
24751;SDS011;27246;52.376;4.628;2023-03-12T13:39:47;21.02;;;5.22;;
24751;SDS011;27246;52.376;4.628;2023-03-12T13:44:49;28.00;;;6.15;;
24751;SDS011;27246;52.376;4.628;2023-03-12T14:00:17;34.58;;;8.95;;
24751;SDS011;27246;52.376;4.628;2023-03-12T14:05:24;26.75;;;5.65;;
24751;SDS011;27246;52.376;4.628;2023-03-12T14:25:57;26.40;;;6.55;;
24751;SDS011;27246;52.376;4.628;2023-03-12T14:31:05;26.42;;;5.90;;
24751;SDS011;27246;52.376;4.628;2023-03-12T14:36:14;28.40;;;6.20;;
24751;SDS011;27246;52.376;4.628;2023-03-12T14:41:28;35.87;;;7.10;;
24751;SDS011;27246;52.376;4.628;2023-03-12T14:46:35;31.42;;;7.10;;
24751;SDS011;27246;52.376;4.628;2023-03-12T14:51:37;33.53;;;6.97;;
24751;SDS011;27246;52.376;4.628;2023-03-12T14:56:38;35.30;;;6.15;;
24751;SDS011;27246;52.376;4.628;2023-03-12T15:01:45;28.08;;;6.90;;
24751;SDS011;27246;52.376;4.628;2023-03-12T15:06:49;38.03;;;7.55;;
24751;SDS011;27246;52.376;4.628;2023-03-12T15:11:55;38.50;;;8.35;;
24751;SDS011;27246;52.376;4.628;2023-03-12T15:16:59;29.63;;;8.10;;
24751;SDS011;27246;52.376;4.628;2023-03-12T15:22:03;26.25;;;7.28;;
24751;SDS011;27246;52.376;4.628;2023-03-12T15:32:25;26.77;;;6.20;;
24751;SDS011;27246;52.376;4.628;2023-03-12T15:37:29;34.28;;;7.13;;
24751;SDS011;27246;52.376;4.628;2023-03-12T15:42:39;23.95;;;5.80;;
24751;SDS011;27246;52.376;4.628;2023-03-12T15:47:43;30.50;;;6.60;;
24751;SDS011;27246;52.376;4.628;2023-03-12T15:53:02;30.90;;;7.38;;
24751;SDS011;27246;52.376;4.628;2023-03-12T15:58:35;27.15;;;6.38;;
24751;SDS011;27246;52.376;4.628;2023-03-12T16:03:39;30.38;;;7.93;;
24751;SDS011;27246;52.376;4.628;2023-03-12T16:08:43;29.17;;;8.80;;
24751;SDS011;27246;52.376;4.628;2023-03-12T16:13:49;27.00;;;7.35;;
24751;SDS011;27246;52.376;4.628;2023-03-12T16:18:52;32.50;;;7.35;;
24751;SDS011;27246;52.376;4.628;2023-03-12T16:23:54;32.35;;;7.65;;
24751;SDS011;27246;52.376;4.628;2023-03-12T16:28:56;22.45;;;5.85;;
24751;SDS011;27246;52.376;4.628;2023-03-12T16:33:58;34.40;;;8.77;;
24751;SDS011;27246;52.376;4.628;2023-03-12T16:39:00;27.73;;;7.70;;
24751;SDS011;27246;52.376;4.628;2023-03-12T16:44:02;35.20;;;8.20;;
24751;SDS011;27246;52.376;4.628;2023-03-12T16:49:08;38.67;;;8.15;;
24751;SDS011;27246;52.376;4.628;2023-03-12T16:54:14;40.42;;;9.75;;
24751;SDS011;27246;52.376;4.628;2023-03-12T16:59:24;36.88;;;7.78;;
24751;SDS011;27246;52.376;4.628;2023-03-12T17:04:28;42.28;;;10.02;;
24751;SDS011;27246;52.376;4.628;2023-03-12T17:09:29;46.28;;;10.02;;
24751;SDS011;27246;52.376;4.628;2023-03-12T17:14:31;39.90;;;10.05;;
24751;SDS011;27246;52.376;4.628;2023-03-12T17:19:33;41.95;;;8.65;;
24751;SDS011;27246;52.376;4.628;2023-03-12T17:24:35;37.22;;;8.52;;
24751;SDS011;27246;52.376;4.628;2023-03-12T17:29:37;42.42;;;10.70;;
24751;SDS011;27246;52.376;4.628;2023-03-12T17:34:38;39.45;;;9.40;;
24751;SDS011;27246;52.376;4.628;2023-03-12T17:39:40;40.40;;;8.43;;
24751;SDS011;27246;52.376;4.628;2023-03-12T17:44:42;33.53;;;7.97;;
24751;SDS011;27246;52.376;4.628;2023-03-12T17:49:44;36.00;;;8.70;;
24751;SDS011;27246;52.376;4.628;2023-03-12T17:54:45;28.58;;;9.00;;
24751;SDS011;27246;52.376;4.628;2023-03-12T17:59:47;31.88;;;7.97;;
24751;SDS011;27246;52.376;4.628;2023-03-12T18:04:49;27.35;;;6.45;;
24751;SDS011;27246;52.376;4.628;2023-03-12T18:09:51;23.98;;;6.20;;
24751;SDS011;27246;52.376;4.628;2023-03-12T18:14:53;31.55;;;7.00;;
24751;SDS011;27246;52.376;4.628;2023-03-12T18:19:55;25.55;;;6.35;;
24751;SDS011;27246;52.376;4.628;2023-03-12T18:24:56;24.00;;;6.60;;
24751;SDS011;27246;52.376;4.628;2023-03-12T18:29:58;24.98;;;5.85;;
24751;SDS011;27246;52.376;4.628;2023-03-12T18:35:00;26.73;;;5.63;;
24751;SDS011;27246;52.376;4.628;2023-03-12T18:40:02;23.40;;;5.05;;
24751;SDS011;27246;52.376;4.628;2023-03-12T18:45:05;31.42;;;6.70;;
24751;SDS011;27246;52.376;4.628;2023-03-12T18:50:08;21.55;;;5.60;;
24751;SDS011;27246;52.376;4.628;2023-03-12T18:55:10;20.90;;;5.53;;
24751;SDS011;27246;52.376;4.628;2023-03-12T19:00:16;29.95;;;5.63;;
24751;SDS011;27246;52.376;4.628;2023-03-12T19:05:18;24.13;;;5.57;;
24751;SDS011;27246;52.376;4.628;2023-03-12T19:10:20;25.80;;;6.43;;
24751;SDS011;27246;52.376;4.628;2023-03-12T19:15:22;23.65;;;5.00;;
24751;SDS011;27246;52.376;4.628;2023-03-12T19:20:24;24.38;;;5.60;;
24751;SDS011;27246;52.376;4.628;2023-03-12T19:25:26;22.88;;;5.63;;
24751;SDS011;27246;52.376;4.628;2023-03-12T19:30:28;17.83;;;4.55;;
24751;SDS011;27246;52.376;4.628;2023-03-12T19:35:31;21.20;;;4.93;;
24751;SDS011;27246;52.376;4.628;2023-03-12T19:40:33;18.20;;;4.95;;
24751;SDS011;27246;52.376;4.628;2023-03-12T19:45:35;18.40;;;3.90;;
24751;SDS011;27246;52.376;4.628;2023-03-12T19:50:37;22.08;;;5.40;;
24751;SDS011;27246;52.376;4.628;2023-03-12T19:55:39;17.48;;;4.70;;
24751;SDS011;27246;52.376;4.628;2023-03-12T20:00:41;25.95;;;5.90;;
24751;SDS011;27246;52.376;4.628;2023-03-12T20:05:43;26.45;;;5.22;;
24751;SDS011;27246;52.376;4.628;2023-03-12T20:10:46;22.58;;;4.95;;
24751;SDS011;27246;52.376;4.628;2023-03-12T20:15:47;26.15;;;5.65;;
24751;SDS011;27246;52.376;4.628;2023-03-12T20:20:49;24.02;;;4.85;;
24751;SDS011;27246;52.376;4.628;2023-03-12T20:25:51;18.55;;;5.40;;
24751;SDS011;27246;52.376;4.628;2023-03-12T20:30:53;25.80;;;5.70;;
24751;SDS011;27246;52.376;4.628;2023-03-12T20:35:55;29.42;;;5.93;;
24751;SDS011;27246;52.376;4.628;2023-03-12T20:40:56;27.40;;;5.78;;
24751;SDS011;27246;52.376;4.628;2023-03-12T20:45:58;26.65;;;5.57;;
24751;SDS011;27246;52.376;4.628;2023-03-12T20:51:00;16.67;;;4.45;;
24751;SDS011;27246;52.376;4.628;2023-03-12T20:56:02;27.00;;;5.63;;
24751;SDS011;27246;52.376;4.628;2023-03-12T21:01:07;26.95;;;5.97;;
24751;SDS011;27246;52.376;4.628;2023-03-12T21:06:09;24.77;;;6.28;;
24751;SDS011;27246;52.376;4.628;2023-03-12T21:11:11;22.17;;;6.28;;
24751;SDS011;27246;52.376;4.628;2023-03-12T21:16:12;27.27;;;6.10;;
24751;SDS011;27246;52.376;4.628;2023-03-12T21:21:14;16.88;;;4.22;;
24751;SDS011;27246;52.376;4.628;2023-03-12T21:26:16;22.77;;;6.18;;
24751;SDS011;27246;52.376;4.628;2023-03-12T21:31:19;20.58;;;5.70;;
24751;SDS011;27246;52.376;4.628;2023-03-12T21:36:20;17.42;;;5.13;;
24751;SDS011;27246;52.376;4.628;2023-03-12T21:41:22;26.77;;;5.82;;
24751;SDS011;27246;52.376;4.628;2023-03-12T21:46:24;15.35;;;4.60;;
24751;SDS011;27246;52.376;4.628;2023-03-12T21:51:28;15.30;;;3.72;;
24751;SDS011;27246;52.376;4.628;2023-03-12T21:56:29;14.20;;;4.93;;
24751;SDS011;27246;52.376;4.628;2023-03-12T22:01:31;20.60;;;4.32;;
24751;SDS011;27246;52.376;4.628;2023-03-12T22:06:33;20.55;;;4.30;;
24751;SDS011;27246;52.376;4.628;2023-03-12T22:11:34;18.45;;;4.22;;
24751;SDS011;27246;52.376;4.628;2023-03-12T22:16:36;20.27;;;4.93;;
24751;SDS011;27246;52.376;4.628;2023-03-12T22:21:38;17.38;;;4.70;;
24751;SDS011;27246;52.376;4.628;2023-03-12T22:26:39;19.67;;;5.13;;
24751;SDS011;27246;52.376;4.628;2023-03-12T22:31:41;20.80;;;5.13;;
24751;SDS011;27246;52.376;4.628;2023-03-12T22:36:43;19.83;;;5.32;;
24751;SDS011;27246;52.376;4.628;2023-03-12T22:41:47;19.58;;;4.80;;
24751;SDS011;27246;52.376;4.628;2023-03-12T22:46:50;18.77;;;4.75;;
24751;SDS011;27246;52.376;4.628;2023-03-12T22:51:52;17.75;;;5.28;;
24751;SDS011;27246;52.376;4.628;2023-03-12T22:56:54;23.70;;;5.95;;
24751;SDS011;27246;52.376;4.628;2023-03-12T23:01:56;23.75;;;6.22;;
24751;SDS011;27246;52.376;4.628;2023-03-12T23:06:58;22.52;;;5.88;;
24751;SDS011;27246;52.376;4.628;2023-03-12T23:12:14;22.13;;;6.57;;
24751;SDS011;27246;52.376;4.628;2023-03-12T23:17:16;26.40;;;6.30;;
24751;SDS011;27246;52.376;4.628;2023-03-12T23:22:17;20.60;;;7.07;;
24751;SDS011;27246;52.376;4.628;2023-03-12T23:27:19;23.17;;;6.80;;
24751;SDS011;27246;52.376;4.628;2023-03-12T23:32:21;25.65;;;6.72;;
24751;SDS011;27246;52.376;4.628;2023-03-12T23:37:22;18.20;;;6.60;;
24751;SDS011;27246;52.376;4.628;2023-03-12T23:42:25;20.48;;;6.63;;
24751;SDS011;27246;52.376;4.628;2023-03-12T23:47:28;23.95;;;6.38;;
24751;SDS011;27246;52.376;4.628;2023-03-12T23:52:29;19.08;;;5.70;;
24751;SDS011;27246;52.376;4.628;2023-03-12T23:57:31;18.65;;;6.03;;
